Time;durP1;ratioP1;P1;durP2;ratioP2;P2;SDS_P1;SDS_P2;PMS_P1;PMS_P2;Temp;Humidity;BMP_temperature;BMP_pressure;BME280_temperature;BME280_humidity;BME280_pressure;Samples;Min_cycle;Max_cycle;Signal;HPM_P1;HPM_P2
2023/06/02 00:02:13;;;;;;;7.22;3.10;;;;;;;14.93;52.01;102042.66;6214496;23;20004;-92
2023/06/02 00:04:38;;;;;;;6.35;3.13;;;;;;;14.92;52.09;102045.38;6211248;23;20431;-91
2023/06/02 00:07:04;;;;;;;6.50;3.17;;;;;;;14.92;52.22;102046.28;6216229;23;20035;-91
2023/06/02 00:09:35;;;;;;;6.35;3.38;;;;;;;14.99;51.93;102053.06;6213639;23;20011;-92
2023/06/02 00:12:01;;;;;;;7.28;3.28;;;;;;;14.97;52.03;102046.09;6214970;23;20008;-92
2023/06/02 00:14:26;;;;;;;10.77;3.22;;;;;;;15.02;52.17;102052.09;6215790;23;20035;-91
2023/06/02 00:16:55;;;;;;;9.57;3.97;;;;;;;15.00;52.43;102051.28;6215251;23;20004;-91
2023/06/02 00:19:20;;;;;;;11.45;3.58;;;;;;;14.90;51.96;102041.91;6214356;23;20519;-90
2023/06/02 00:21:47;;;;;;;6.63;3.20;;;;;;;14.94;52.35;102051.53;6215106;23;20015;-92
2023/06/02 00:24:13;;;;;;;6.05;2.85;;;;;;;14.96;52.08;102052.31;6214648;23;20508;-91
2023/06/02 00:26:38;;;;;;;8.88;3.45;;;;;;;14.86;51.88;102043.81;6242500;23;20028;-91
2023/06/02 00:29:03;;;;;;;7.57;2.97;;;;;;;14.72;52.01;102039.03;6214551;23;20091;-92
2023/06/02 00:31:29;;;;;;;5.00;2.88;;;;;;;14.65;52.46;102047.31;6215643;23;20011;-92
2023/06/02 00:33:54;;;;;;;3.72;2.83;;;;;;;14.56;51.85;102037.88;6215016;23;20004;-91
2023/06/02 00:36:19;;;;;;;5.93;2.95;;;;;;;14.57;52.14;102046.75;6215569;23;20092;-91
2023/06/02 00:38:45;;;;;;;7.93;2.80;;;;;;;14.56;52.14;102051.19;6209625;23;20004;-91
2023/06/02 00:41:10;;;;;;;6.95;3.20;;;;;;;14.50;52.16;102049.63;6210331;23;20012;-91
2023/06/02 00:43:35;;;;;;;10.95;3.58;;;;;;;14.47;52.58;102051.50;6211033;23;20011;-92
2023/06/02 00:46:01;;;;;;;9.90;3.35;;;;;;;14.38;51.90;102042.06;6210334;23;20015;-91
2023/06/02 00:48:26;;;;;;;7.05;3.15;;;;;;;14.33;52.00;102045.81;6210216;23;20099;-92
2023/06/02 00:50:52;;;;;;;8.55;3.22;;;;;;;14.32;51.68;102044.97;6211173;23;20332;-92
2023/06/02 00:53:17;;;;;;;10.15;3.22;;;;;;;14.30;51.29;102046.78;6210960;23;20007;-92
2023/06/02 00:55:43;;;;;;;12.20;3.60;;;;;;;14.18;51.39;102047.25;6208898;23;20008;-91
2023/06/02 00:58:13;;;;;;;10.68;3.55;;;;;;;14.14;51.33;102042.97;6211129;23;20199;-91
2023/06/02 01:00:42;;;;;;;12.05;3.42;;;;;;;13.95;50.88;102034.78;6208663;23;20314;-90
2023/06/02 01:03:07;;;;;;;9.63;3.58;;;;;;;13.93;51.20;102050.75;6210814;23;20004;-91
2023/06/02 01:05:35;;;;;;;6.95;3.30;;;;;;;13.93;51.38;102037.47;6209758;23;20062;-91
2023/06/02 01:08:03;;;;;;;6.32;3.05;;;;;;;13.87;51.00;102042.13;6210941;23;20096;-92
2023/06/02 01:10:29;;;;;;;10.68;3.28;;;;;;;13.88;51.65;102049.19;6209531;23;20448;-91
2023/06/02 01:12:55;;;;;;;9.65;3.17;;;;;;;13.85;51.48;102044.84;6211376;23;20079;-92
2023/06/02 01:15:21;;;;;;;10.35;3.13;;;;;;;13.90;51.58;102044.69;6209187;23;20547;-92
2023/06/02 01:17:47;;;;;;;9.30;3.22;;;;;;;13.97;51.65;102055.03;6210672;23;20448;-91
2023/06/02 01:20:14;;;;;;;9.38;3.58;;;;;;;13.97;51.54;102064.81;6209404;23;20004;-91
2023/06/02 01:23:01;;;;;;;8.82;3.05;;;;;;;13.97;51.53;102046.22;6209447;23;20025;-91
2023/06/02 01:25:27;;;;;;;9.43;3.13;;;;;;;13.97;51.45;102055.03;6207967;23;20008;-91
2023/06/02 01:27:56;;;;;;;8.45;3.58;;;;;;;13.90;51.71;102056.19;6209274;23;20068;-92
2023/06/02 01:30:23;;;;;;;9.38;3.40;;;;;;;13.92;51.83;102057.00;6208900;23;20012;-91
2023/06/02 01:33:01;;;;;;;9.63;3.22;;;;;;;13.97;52.16;102055.03;6210583;23;20082;-91
2023/06/02 01:35:30;;;;;;;12.55;3.03;;;;;;;13.98;51.69;102051.47;6208355;23;20020;-91
2023/06/02 01:37:59;;;;;;;7.22;3.03;;;;;;;14.01;51.85;102046.03;6210652;23;20008;-91
2023/06/02 01:40:25;;;;;;;8.05;2.88;;;;;;;14.02;52.09;102046.91;6208093;23;20448;-92
2023/06/02 01:42:52;;;;;;;9.77;2.92;;;;;;;14.05;51.59;102038.84;6211805;23;20409;-91
2023/06/02 01:45:19;;;;;;;13.07;3.70;;;;;;;14.03;51.28;102038.91;6211312;23;20465;-91
2023/06/02 01:47:45;;;;;;;13.48;3.47;;;;;;;14.00;51.43;102035.47;6209022;23;20005;-90
2023/06/02 01:50:10;;;;;;;8.82;2.58;;;;;;;14.04;51.77;102042.44;6209669;23;20008;-91
2023/06/02 01:52:35;;;;;;;10.90;3.15;;;;;;;14.01;51.68;102032.75;6210108;23;20005;-91
2023/06/02 01:55:01;;;;;;;15.05;2.92;;;;;;;13.99;51.87;102033.75;6208580;23;20012;-91
2023/06/02 01:57:27;;;;;;;8.82;3.13;;;;;;;14.04;51.29;102039.75;6210754;23;20436;-90
2023/06/02 01:59:52;;;;;;;7.47;2.90;;;;;;;14.06;52.01;102032.59;6210675;23;20004;-90
2023/06/02 02:02:18;;;;;;;12.32;3.17;;;;;;;14.13;51.80;102041.19;6211120;23;20005;-91
2023/06/02 02:04:43;;;;;;;11.40;3.00;;;;;;;14.07;52.02;102038.78;6208051;23;20067;-90
2023/06/02 02:07:11;;;;;;;9.13;3.10;;;;;;;14.11;51.56;102043.94;6211436;23;20025;-91
2023/06/02 02:09:37;;;;;;;6.93;2.92;;;;;;;14.01;51.94;102038.06;6208678;23;20004;-91
2023/06/02 02:12:02;;;;;;;8.68;3.10;;;;;;;14.04;52.28;102039.75;6209438;23;20008;-90
2023/06/02 02:14:28;;;;;;;10.98;3.08;;;;;;;14.11;51.85;102043.94;6208416;23;20440;-91
2023/06/02 02:16:54;;;;;;;7.15;2.70;;;;;;;14.09;51.70;102034.28;6208203;23;20020;-91
2023/06/02 02:19:22;;;;;;;14.80;3.70;;;;;;;14.11;52.03;102043.06;6208947;23;20004;-91
2023/06/02 02:21:48;;;;;;;12.73;3.35;;;;;;;14.10;51.77;102036.88;6209800;23;20008;-91
2023/06/02 02:24:14;;;;;;;8.85;3.30;;;;;;;14.18;51.99;102050.78;6208607;23;20099;-91
2023/06/02 02:26:40;;;;;;;7.43;3.08;;;;;;;14.16;52.66;102044.63;6208959;23;20079;-91
2023/06/02 02:29:06;;;;;;;19.45;3.28;;;;;;;14.19;52.32;102041.88;6208730;23;20035;-92
2023/06/02 02:31:31;;;;;;;6.20;3.08;;;;;;;14.29;52.56;102047.72;6209298;23;20527;-91
2023/06/02 02:33:56;;;;;;;9.93;2.75;;;;;;;14.24;52.26;102037.25;6208470;23;20005;-92
2023/06/02 02:36:22;;;;;;;10.25;3.10;;;;;;;14.28;52.63;102038.88;6210819;23;20017;-92
2023/06/02 02:38:47;;;;;;;7.85;3.33;;;;;;;14.19;52.07;102033.88;6209570;23;20008;-91
2023/06/02 02:41:13;;;;;;;13.02;3.15;;;;;;;14.19;52.63;102039.22;6209683;23;19996;-91
2023/06/02 02:43:38;;;;;;;11.95;3.20;;;;;;;14.20;52.49;102045.41;6208555;23;20004;-90
2023/06/02 02:46:04;;;;;;;9.20;3.78;;;;;;;14.21;52.13;102040.00;6208350;23;20027;-91
2023/06/02 02:48:29;;;;;;;17.52;3.35;;;;;;;14.25;52.71;102038.13;6209015;23;20031;-92
2023/06/02 02:50:55;;;;;;;10.52;3.40;;;;;;;14.18;52.66;102037.47;6207958;23;20007;-91
2023/06/02 02:53:21;;;;;;;13.10;3.33;;;;;;;14.14;52.87;102035.84;6210904;23;20004;-92
2023/06/02 02:55:49;;;;;;;10.65;3.33;;;;;;;14.08;52.67;102020.09;6209743;23;20004;-91
2023/06/02 02:58:18;;;;;;;14.02;3.60;;;;;;;14.21;53.07;102024.03;6207814;23;20005;-91
2023/06/02 03:00:45;;;;;;;10.98;3.65;;;;;;;14.21;52.63;102037.34;6208750;23;20016;-93
2023/06/02 03:03:11;;;;;;;10.43;2.80;;;;;;;14.24;53.15;102037.25;6208979;23;20337;-91
2023/06/02 03:05:37;;;;;;;15.75;3.83;;;;;;;14.15;52.98;102031.41;6209325;23;20001;-92
2023/06/02 03:08:03;;;;;;;13.25;3.58;;;;;;;14.15;53.49;102044.69;6209607;23;20079;-92
2023/06/02 03:10:29;;;;;;;12.63;3.50;;;;;;;14.08;53.35;102037.84;6208071;23;20079;-92
2023/06/02 03:12:54;;;;;;;8.80;3.40;;;;;;;14.02;53.74;102036.28;6210412;23;20448;-91
2023/06/02 03:15:20;;;;;;;12.38;3.85;;;;;;;14.01;52.96;102038.06;6210587;23;20008;-92
2023/06/02 03:17:45;;;;;;;15.30;3.97;;;;;;;13.88;53.56;102030.56;6209351;23;20409;-93
2023/06/02 03:20:11;;;;;;;11.30;3.55;;;;;;;13.80;53.25;102041.47;6208850;23;19997;-91
2023/06/02 03:22:37;;;;;;;8.35;3.40;;;;;;;13.73;53.66;102038.16;6207524;23;20004;-91
2023/06/02 03:25:02;;;;;;;9.10;3.65;;;;;;;13.72;53.35;102049.72;6209937;23;20032;-91
2023/06/02 03:27:28;;;;;;;10.57;3.40;;;;;;;13.72;52.95;102052.38;6209380;23;20070;-92
2023/06/02 03:29:53;;;;;;;8.77;3.53;;;;;;;13.65;53.06;102042.00;6208213;23;20008;-91
2023/06/02 03:32:18;;;;;;;12.25;3.42;;;;;;;13.61;52.51;102043.00;6208724;23;20010;-90
2023/06/02 03:34:44;;;;;;;11.43;3.65;;;;;;;13.63;52.73;102058.00;6208780;22;20108;-92
2023/06/02 03:37:11;;;;;;;12.90;3.63;;;;;;;13.67;52.74;102056.13;6208562;23;20019;-91
2023/06/02 03:39:37;;;;;;;9.18;3.08;;;;;;;13.59;53.30;102053.69;6208928;23;20413;-91
2023/06/02 03:42:03;;;;;;;13.80;3.63;;;;;;;13.62;53.43;102055.41;6211166;23;20000;-91
2023/06/02 03:44:28;;;;;;;10.25;3.28;;;;;;;13.49;52.72;102050.47;6210875;23;20011;-91
2023/06/02 03:46:53;;;;;;;9.93;3.78;;;;;;;13.44;52.79;102057.75;6211224;23;20377;-92
2023/06/02 03:49:19;;;;;;;11.00;3.38;;;;;;;13.52;53.42;102053.06;6209564;23;20026;-92
2023/06/02 03:51:46;;;;;;;10.88;3.45;;;;;;;13.53;53.10;102044.16;6209827;23;20009;-92
2023/06/02 03:54:12;;;;;;;14.07;4.03;;;;;;;13.65;52.96;102064.13;6210364;23;20016;-91
2023/06/02 03:56:37;;;;;;;13.65;3.47;;;;;;;13.60;52.51;102044.81;6211165;23;20012;-92
2023/06/02 03:59:03;;;;;;;10.00;3.55;;;;;;;13.67;52.70;102054.31;6210001;23;20329;-91
2023/06/02 04:01:28;;;;;;;9.65;3.13;;;;;;;13.67;53.68;102056.13;6211122;23;20001;-91
2023/06/02 04:03:53;;;;;;;7.22;3.70;;;;;;;13.69;53.10;102065.75;6210637;23;20436;-91
2023/06/02 04:06:19;;;;;;;12.43;3.55;;;;;;;13.63;53.03;102060.66;6212654;23;20317;-91
2023/06/02 04:08:46;;;;;;;6.05;3.28;;;;;;;13.58;53.36;102059.94;6209801;23;20012;-92
2023/06/02 04:11:12;;;;;;;11.35;3.17;;;;;;;13.53;53.01;102072.50;6209735;23;20001;-92
2023/06/02 04:13:37;;;;;;;9.80;3.47;;;;;;;13.48;53.62;102077.97;6211103;23;20062;-91
2023/06/02 04:16:03;;;;;;;8.13;3.25;;;;;;;13.45;53.46;102063.91;6209658;23;20295;-92
2023/06/02 04:18:30;;;;;;;8.00;3.10;;;;;;;13.46;52.73;102078.94;6210066;23;20413;-92
2023/06/02 04:20:55;;;;;;;9.98;3.25;;;;;;;13.39;53.47;102070.31;6210399;23;20063;-92
2023/06/02 04:23:20;;;;;;;12.02;3.05;;;;;;;13.51;53.98;102074.34;6211017;23;20056;-92
2023/06/02 04:25:46;;;;;;;10.32;3.90;;;;;;;13.64;53.73;102073.03;6212268;23;20008;-91
2023/06/02 04:28:11;;;;;;;9.32;3.20;;;;;;;13.49;53.10;102053.13;6210649;23;20445;-91
2023/06/02 04:30:38;;;;;;;10.10;3.25;;;;;;;13.45;52.48;102055.94;6208590;23;20007;-91
2023/06/02 04:33:04;;;;;;;8.13;3.20;;;;;;;13.45;52.54;102058.59;6210049;23;20008;-93
2023/06/02 04:35:29;;;;;;;6.97;3.03;;;;;;;13.50;52.30;102069.94;6209431;23;20482;-92
2023/06/02 04:37:55;;;;;;;8.02;3.25;;;;;;;13.51;52.69;102061.06;6210872;23;20009;-91
2023/06/02 04:40:20;;;;;;;7.00;3.05;;;;;;;13.62;52.71;102071.34;6210499;23;20015;-93
2023/06/02 04:42:45;;;;;;;6.65;3.20;;;;;;;13.59;52.69;102071.44;6209927;23;20008;-91
2023/06/02 04:45:11;;;;;;;9.88;3.17;;;;;;;13.64;53.20;102072.16;6210684;23;20016;-92
2023/06/02 04:47:38;;;;;;;7.60;2.85;;;;;;;13.66;52.88;102067.63;6211302;23;20015;-92
2023/06/02 04:50:05;;;;;;;11.93;2.90;;;;;;;13.63;52.35;102062.44;6209917;23;20318;-93
2023/06/02 04:52:30;;;;;;;6.13;2.92;;;;;;;13.58;52.85;102069.72;6209155;23;20066;-93
2023/06/02 04:54:56;;;;;;;7.43;2.70;;;;;;;13.53;52.84;102059.22;6211334;23;20091;-92
2023/06/02 04:57:21;;;;;;;6.00;2.60;;;;;;;13.61;52.58;102075.75;6210766;23;20042;-91
2023/06/02 04:59:47;;;;;;;13.50;2.67;;;;;;;13.60;52.68;102074.03;6209646;23;20055;-93
2023/06/02 05:02:13;;;;;;;8.45;2.88;;;;;;;13.62;52.75;102080.19;6209675;23;20008;-93
2023/06/02 05:04:38;;;;;;;7.05;3.10;;;;;;;13.54;52.81;102076.91;6210247;23;20055;-93
2023/06/02 05:07:04;;;;;;;7.45;2.65;;;;;;;13.48;52.04;102075.31;6210706;23;20004;-92
2023/06/02 05:09:29;;;;;;;5.57;2.42;;;;;;;13.45;51.83;102085.16;6210992;23;20425;-92
2023/06/02 05:11:55;;;;;;;6.78;2.72;;;;;;;13.59;52.40;102095.34;6209412;23;20016;-93
2023/06/02 05:14:20;;;;;;;9.13;2.35;;;;;;;13.62;52.41;102096.13;6209661;23;20008;-92
2023/06/02 05:16:46;;;;;;;9.57;2.55;;;;;;;13.50;51.66;102085.88;6206423;23;20005;-93
2023/06/02 05:19:12;;;;;;;4.95;2.17;;;;;;;13.47;51.77;102083.31;6209868;23;20009;-91
2023/06/02 05:21:37;;;;;;;10.82;2.50;;;;;;;13.48;50.85;102088.59;6209575;23;20294;-92
2023/06/02 05:24:03;;;;;;;7.00;2.50;;;;;;;13.43;51.68;102079.03;6210937;23;20389;-92
2023/06/02 05:26:28;;;;;;;5.70;2.00;;;;;;;13.37;50.83;102065.94;6209720;23;20083;-92
2023/06/02 05:28:53;;;;;;;9.77;2.50;;;;;;;13.35;51.99;102070.44;6209594;23;20014;-91
2023/06/02 05:31:19;;;;;;;10.10;2.42;;;;;;;13.53;51.58;102091.97;6209729;23;20036;-91
2023/06/02 05:33:45;;;;;;;10.95;2.53;;;;;;;13.53;51.15;102080.47;6210314;23;20377;-91
2023/06/02 05:36:10;;;;;;;8.50;2.30;;;;;;;13.58;51.06;102089.16;6210145;23;20083;-92
2023/06/02 05:38:38;;;;;;;10.43;2.33;;;;;;;13.51;51.36;102087.63;6210437;23;20032;-91
2023/06/02 05:41:04;;;;;;;10.43;2.38;;;;;;;13.37;50.78;102077.44;6211566;23;20084;-92
2023/06/02 05:43:29;;;;;;;7.28;2.20;;;;;;;13.38;51.31;102079.19;6210990;23;20086;-91
2023/06/02 05:45:55;;;;;;;10.45;2.45;;;;;;;13.50;51.26;102078.78;6210266;23;20000;-92
2023/06/02 05:48:20;;;;;;;10.15;2.60;;;;;;;13.60;51.12;102091.78;6209558;23;20004;-91
2023/06/02 05:50:46;;;;;;;8.18;2.38;;;;;;;13.62;51.11;102089.94;6209888;23;20032;-92
2023/06/02 05:53:11;;;;;;;12.30;2.50;;;;;;;13.65;51.43;102090.69;6210482;23;20452;-91
2023/06/02 05:55:37;;;;;;;10.20;2.20;;;;;;;13.66;51.18;102083.59;6210852;23;20015;-91
2023/06/02 05:58:02;;;;;;;5.55;2.13;;;;;;;13.71;51.34;102090.50;6212742;23;19996;-92
2023/06/02 06:00:27;;;;;;;8.88;2.78;;;;;;;13.66;50.89;102087.13;6208183;23;20046;-91
2023/06/02 06:02:53;;;;;;;13.80;2.80;;;;;;;13.71;51.32;102090.50;6208495;23;20349;-91
2023/06/02 06:05:18;;;;;;;8.05;2.50;;;;;;;13.71;50.81;102085.19;6209737;23;20047;-92
2023/06/02 06:07:44;;;;;;;8.73;2.15;;;;;;;13.61;50.86;102082.88;6209754;23;20314;-92
2023/06/02 06:10:09;;;;;;;10.00;2.53;;;;;;;13.73;51.93;102079.81;6209123;23;20386;-91
2023/06/02 06:12:35;;;;;;;9.43;2.25;;;;;;;13.87;50.72;102090.84;6210585;23;20012;-91
2023/06/02 06:15:00;;;;;;;9.45;2.63;;;;;;;13.85;50.63;102073.19;6209686;23;20080;-92
2023/06/02 06:17:26;;;;;;;11.13;2.40;;;;;;;13.92;50.42;102094.22;6210346;23;20005;-93
2023/06/02 06:19:51;;;;;;;11.15;2.70;;;;;;;14.01;51.25;102088.59;6209858;23;20043;-92
2023/06/02 06:22:17;;;;;;;7.90;2.50;;;;;;;14.04;50.68;102090.28;6210962;23;20083;-93
2023/06/02 06:24:42;;;;;;;9.98;2.10;;;;;;;14.16;49.97;102103.13;6209312;23;20429;-93
2023/06/02 06:27:07;;;;;;;9.35;2.53;;;;;;;14.21;50.58;102098.53;6210346;23;20013;-93
2023/06/02 06:29:36;;;;;;;6.20;2.35;;;;;;;14.22;50.34;102081.66;6209303;23;20005;-93
2023/06/02 06:32:01;;;;;;;12.98;2.50;;;;;;;14.32;49.90;102091.97;6213423;23;20318;-95
2023/06/02 06:37:51;;;;;;;12.70;2.63;;;;;;;14.44;49.52;102105.69;6180633;23;20024;-89
2023/06/02 06:40:16;;;;;;;9.02;2.72;;;;;;;14.47;49.24;102107.38;6183567;23;20310;-88
2023/06/02 06:42:42;;;;;;;11.05;2.70;;;;;;;14.53;49.63;102115.16;6184058;23;20009;-89
2023/06/02 06:45:07;;;;;;;8.77;2.20;;;;;;;14.57;50.01;102105.28;6209371;23;20333;-88
2023/06/02 06:47:33;;;;;;;12.68;2.65;;;;;;;14.54;48.79;102104.47;6183401;23;20008;-88
2023/06/02 06:49:58;;;;;;;13.15;2.60;;;;;;;14.53;49.33;102104.53;6183066;23;20095;-89
2023/06/02 06:52:24;;;;;;;6.57;2.05;;;;;;;14.61;48.82;102118.44;6195034;23;19999;-87
2023/06/02 06:54:50;;;;;;;8.77;2.60;;;;;;;14.62;49.15;102098.00;6215075;23;20037;-89
2023/06/02 06:57:16;;;;;;;8.88;2.78;;;;;;;14.64;48.64;102096.13;6213204;23;20008;-89
2023/06/02 06:59:44;;;;;;;9.77;2.90;;;;;;;14.65;48.35;102096.09;6240598;23;20000;-89
2023/06/02 07:02:10;;;;;;;7.75;2.42;;;;;;;14.89;48.83;102109.41;6240641;23;20439;-90
2023/06/02 07:04:35;;;;;;;8.90;2.58;;;;;;;14.95;49.21;102101.19;6216819;23;20004;-90
2023/06/02 07:07:00;;;;;;;10.02;2.20;;;;;;;14.97;48.55;102097.56;6216468;23;20523;-88
2023/06/02 07:09:26;;;;;;;74.78;6.20;;;;;;;14.98;48.32;102095.75;6216836;23;20008;-90
2023/06/02 07:11:51;;;;;;;11.30;2.30;;;;;;;15.19;48.10;102102.03;6213006;23;20007;-91
2023/06/02 07:14:17;;;;;;;8.18;2.28;;;;;;;15.39;47.37;102112.78;6211400;23;20008;-92
2023/06/02 07:16:46;;;;;;;24.95;3.45;;;;;;;15.37;46.56;102111.97;6239324;23;20003;-92
2023/06/02 07:19:12;;;;;;;9.27;2.05;;;;;;;15.59;46.91;102108.44;6212287;23;20026;-92
2023/06/02 07:21:37;;;;;;;10.18;2.20;;;;;;;15.68;46.38;102106.28;6213133;23;20423;-91
2023/06/02 07:24:03;;;;;;;9.38;2.28;;;;;;;15.79;46.11;102101.38;6213671;23;20088;-91
2023/06/02 07:26:28;;;;;;;6.10;2.00;;;;;;;15.87;45.40;102116.19;6214119;23;20087;-91
2023/06/02 07:28:53;;;;;;;8.93;2.58;;;;;;;15.85;45.04;102118.91;6214011;23;20000;-91
2023/06/02 07:31:19;;;;;;;8.85;2.22;;;;;;;15.84;46.12;102116.31;6213362;23;20107;-92
2023/06/02 07:33:45;;;;;;;8.95;2.42;;;;;;;15.85;45.66;102110.03;6214032;23;20378;-92
2023/06/02 07:36:11;;;;;;;7.88;2.10;;;;;;;15.87;45.72;102113.53;6213886;23;20004;-92
2023/06/02 07:38:36;;;;;;;6.57;2.10;;;;;;;15.86;45.06;102114.47;6239989;23;20439;-92
2023/06/02 07:41:02;;;;;;;10.45;2.47;;;;;;;16.03;45.16;102123.47;6213034;23;20008;-91
2023/06/02 07:43:27;;;;;;;7.05;2.33;;;;;;;16.13;45.36;102112.41;6213683;23;20074;-92
2023/06/02 07:45:52;;;;;;;8.23;1.90;;;;;;;16.31;45.13;102117.81;6213673;23;20004;-92
2023/06/02 07:48:17;;;;;;;8.95;2.22;;;;;;;16.36;45.37;102122.94;6212760;23;20039;-92
2023/06/02 07:50:43;;;;;;;10.60;2.90;;;;;;;16.45;44.44;102109.19;6213534;23;20371;-92
2023/06/02 07:53:08;;;;;;;12.60;2.95;;;;;;;16.38;43.91;102097.06;6214925;23;20004;-91
2023/06/02 07:55:33;;;;;;;7.32;2.30;;;;;;;16.38;44.15;102098.88;6241204;23;20004;-91
2023/06/02 07:57:59;;;;;;;13.13;2.22;;;;;;;16.53;44.21;102104.38;6214593;23;20083;-93
2023/06/02 08:00:24;;;;;;;6.43;2.05;;;;;;;16.62;43.71;102103.09;6212504;23;20004;-90
2023/06/02 08:02:50;;;;;;;6.60;1.90;;;;;;;16.69;42.90;102103.69;6241145;23;20075;-89
2023/06/02 08:05:16;;;;;;;6.93;1.95;;;;;;;16.78;43.78;102122.84;6240498;23;20443;-91
2023/06/02 08:07:42;;;;;;;8.90;2.00;;;;;;;16.73;42.46;102110.66;6242430;23;20000;-91
2023/06/02 08:10:08;;;;;;;10.55;2.22;;;;;;;16.66;42.19;102114.53;6241376;23;20004;-94
2023/06/02 08:12:34;;;;;;;8.65;2.83;;;;;;;16.73;42.60;102099.97;6244317;23;20533;-93
2023/06/02 08:14:59;;;;;;;10.88;2.50;;;;;;;16.88;42.33;102099.28;6214120;23;20004;-93
2023/06/02 08:17:29;;;;;;;6.65;2.10;;;;;;;17.06;42.06;102094.88;6219027;23;20309;-92
2023/06/02 08:19:58;;;;;;;9.77;2.35;;;;;;;17.31;42.24;102110.63;6220015;23;20007;-94
2023/06/02 08:22:26;;;;;;;9.32;2.35;;;;;;;17.33;41.83;102092.69;6227447;23;20027;-94
2023/06/02 08:24:52;;;;;;;7.20;1.85;;;;;;;17.44;41.81;102100.16;6220832;23;20000;-93
2023/06/02 08:27:20;;;;;;;8.43;2.08;;;;;;;17.68;43.33;102109.69;6216445;23;20000;-93
2023/06/02 08:29:45;;;;;;;8.25;2.33;;;;;;;17.89;41.99;102101.53;6215832;23;20008;-92
2023/06/02 08:32:11;;;;;;;12.82;2.50;;;;;;;18.06;42.84;102114.94;6216369;23;20008;-92
2023/06/02 08:34:37;;;;;;;10.07;2.35;;;;;;;18.40;41.13;102092.63;6217371;23;20088;-92
2023/06/02 08:37:03;;;;;;;10.57;2.33;;;;;;;18.64;41.29;102119.03;6244015;23;20008;-92
2023/06/02 08:39:29;;;;;;;8.93;2.35;;;;;;;18.48;40.68;102111.84;6217275;23;20000;-94
2023/06/02 08:42:01;;;;;;;11.23;2.33;;;;;;;18.59;40.54;102111.25;6244610;23;20347;-94
2023/06/02 08:44:28;;;;;;;14.52;2.70;;;;;;;19.30;39.43;102116.31;6217497;23;20077;-91
2023/06/02 08:46:55;;;;;;;10.32;2.33;;;;;;;20.77;37.77;102097.72;6217956;23;20014;-93
2023/06/02 08:49:22;;;;;;;10.43;2.65;;;;;;;21.98;36.23;102102.38;6246722;23;20065;-92
2023/06/02 08:51:52;;;;;;;5.97;2.40;;;;;;;21.90;35.56;102092.13;6243817;23;20028;-88
2023/06/02 08:54:20;;;;;;;8.95;1.98;;;;;;;21.71;35.47;102102.41;6216025;23;20008;-92
2023/06/02 08:56:49;;;;;;;11.90;2.75;;;;;;;21.24;35.60;102101.00;6216268;23;20497;-92
2023/06/02 08:59:19;;;;;;;12.00;2.38;;;;;;;21.22;35.03;102090.34;6215245;23;20442;-92
2023/06/02 09:01:45;;;;;;;10.00;2.28;;;;;;;20.91;35.48;102109.41;6242062;23;20000;-93
2023/06/02 09:04:10;;;;;;;10.68;2.72;;;;;;;20.29;37.99;102090.84;6217633;23;20004;-93
2023/06/02 09:06:36;;;;;;;9.48;2.47;;;;;;;20.15;37.71;102089.00;6240575;23;20006;-93
2023/06/02 09:09:02;;;;;;;8.70;2.47;;;;;;;20.23;38.27;102105.50;6215202;23;20004;-92
2023/06/02 09:11:29;;;;;;;8.05;2.55;;;;;;;20.05;37.02;102095.84;6242534;23;20011;-93
2023/06/02 09:13:55;;;;;;;8.90;2.70;;;;;;;20.42;37.42;102096.31;6217539;23;20011;-92
2023/06/02 09:16:20;;;;;;;7.88;2.60;;;;;;;20.35;36.52;102095.84;6217259;23;20004;-93
2023/06/02 09:18:57;;;;;;;11.23;2.90;;;;;;;20.45;38.65;102099.69;6243338;23;20027;-94
2023/06/02 09:21:28;;;;;;;9.35;2.25;;;;;;;20.44;36.96;102094.41;6215930;23;20423;-94
2023/06/02 09:23:55;;;;;;;12.05;2.97;;;;;;;20.58;37.26;102089.94;6242003;23;20011;-93
2023/06/02 09:26:26;;;;;;;10.52;2.78;;;;;;;20.75;37.45;102083.50;6216775;23;20081;-92
2023/06/02 09:29:12;;;;;;;10.40;2.50;;;;;;;20.95;36.24;102093.00;6242162;23;20461;-94
2023/06/02 09:31:54;;;;;;;11.73;2.58;;;;;;;20.93;37.64;102097.59;6240528;23;20004;-91
2023/06/02 09:34:22;;;;;;;11.50;2.78;;;;;;;21.41;35.40;102083.81;6242231;23;20313;-93
2023/06/02 09:36:49;;;;;;;10.25;2.90;;;;;;;21.47;36.56;102086.06;6214534;23;20006;-91
2023/06/02 09:39:30;;;;;;;10.35;2.70;;;;;;;21.67;35.72;102099.06;6240409;23;20008;-92
2023/06/02 09:41:55;;;;;;;8.15;2.33;;;;;;;22.06;36.35;102086.56;6239940;23;20004;-91
2023/06/02 09:44:23;;;;;;;8.82;2.42;;;;;;;22.33;35.05;102083.81;6239685;23;20008;-91
2023/06/02 09:46:48;;;;;;;8.38;2.38;;;;;;;22.52;33.99;102081.56;6240289;23;20042;-90
2023/06/02 09:49:13;;;;;;;6.35;2.05;;;;;;;22.96;33.42;102087.44;6213326;23;20000;-91
2023/06/02 09:51:39;;;;;;;10.77;2.40;;;;;;;22.87;32.92;102089.81;6214785;23;20000;-93
2023/06/02 09:54:06;;;;;;;6.75;2.35;;;;;;;22.70;33.81;102087.44;6213845;23;20065;-90
2023/06/02 09:56:34;;;;;;;9.00;2.78;;;;;;;23.04;33.64;102072.44;6214850;23;20331;-91
2023/06/02 09:59:01;;;;;;;9.10;2.78;;;;;;;24.00;33.80;102079.66;6241669;23;20004;-91
2023/06/02 10:01:26;;;;;;;12.40;2.80;;;;;;;24.34;32.14;102073.34;6213607;23;20335;-91
2023/06/02 10:03:52;;;;;;;10.45;2.53;;;;;;;24.19;32.92;102080.81;6214147;23;20015;-91
2023/06/02 10:06:54;;;;;;;12.95;2.72;;;;;;;23.69;33.15;102092.81;6241717;23;20305;-91
2023/06/02 10:09:59;;;;;;;6.70;2.63;;;;;;;23.56;33.79;102090.16;6241705;23;20103;-92
2023/06/02 10:12:51;;;;;;;8.75;2.70;;;;;;;23.69;33.54;102073.91;6182878;23;20011;-92
2023/06/02 10:15:32;;;;;;;8.80;2.85;;;;;;;23.64;34.44;102082.38;6242242;23;20008;-91
2023/06/02 10:18:19;;;;;;;6.82;3.15;;;;;;;23.95;32.40;102073.75;6242242;23;20000;-91
2023/06/02 10:21:15;;;;;;;7.60;3.05;;;;;;;24.86;32.04;102074.63;6214600;23;20004;-92
2023/06/02 10:23:53;;;;;;;6.78;2.70;;;;;;;24.79;31.88;102076.09;6241714;23;20436;-92
2023/06/02 10:26:48;;;;;;;9.50;2.50;;;;;;;24.62;31.89;102063.94;6214117;23;20004;-94
2023/06/02 10:29:15;;;;;;;10.00;2.53;;;;;;;24.52;31.25;102067.47;6240166;23;20089;-92
2023/06/02 10:31:42;;;;;;;8.60;2.83;;;;;;;24.44;32.85;102065.41;6214357;23;20471;-92
2023/06/02 10:34:07;;;;;;;7.72;2.20;;;;;;;24.89;32.22;102078.91;6242011;23;20416;-91
2023/06/02 10:37:00;;;;;;;9.15;2.67;;;;;;;25.35;32.27;102078.72;6214634;23;20012;-92
2023/06/02 10:39:41;;;;;;;12.00;3.25;;;;;;;25.13;31.20;102076.06;6213347;23;20024;-91
2023/06/02 10:42:07;;;;;;;7.30;3.05;;;;;;;24.84;30.95;102081.97;6241859;23;20327;-92
2023/06/02 10:44:32;;;;;;;7.72;2.80;;;;;;;24.70;30.85;102068.72;6214838;23;20004;-91
2023/06/02 10:47:19;;;;;;;5.80;2.60;;;;;;;24.73;32.06;102073.03;6241048;23;20081;-91
2023/06/02 10:49:58;;;;;;;6.45;2.75;;;;;;;24.38;32.23;102061.31;6244002;23;20008;-91
2023/06/02 10:52:31;;;;;;;8.13;2.83;;;;;;;24.83;31.96;102074.84;6215275;23;20008;-92
2023/06/02 10:55:12;;;;;;;8.32;3.03;;;;;;;25.28;32.11;102071.25;6214918;23;20011;-91
2023/06/02 10:57:58;;;;;;;9.93;3.00;;;;;;;25.35;32.31;102077.88;6214193;23;20082;-91
2023/06/02 11:00:35;;;;;;;11.75;3.28;;;;;;;25.00;31.90;102078.91;6213433;23;20352;-92
2023/06/02 11:03:01;;;;;;;11.88;3.08;;;;;;;24.82;30.83;102069.59;6214054;23;20007;-91
2023/06/02 11:05:31;;;;;;;10.13;3.00;;;;;;;24.93;31.70;102075.81;6241278;23;20034;-92
2023/06/02 11:08:15;;;;;;;10.82;3.20;;;;;;;25.33;31.76;102078.00;6242150;23;20092;-89
2023/06/02 11:10:46;;;;;;;10.13;3.05;;;;;;;25.57;29.81;102071.53;6213921;23;20019;-91
2023/06/02 11:13:13;;;;;;;5.75;2.58;;;;;;;26.29;29.02;102057.22;6211817;23;20020;-92
2023/06/02 11:15:39;;;;;;;12.98;3.10;;;;;;;26.45;29.07;102073.91;6239637;23;20004;-92
2023/06/02 11:18:33;;;;;;;12.23;3.38;;;;;;;26.26;29.61;102062.94;6239836;23;20008;-92
2023/06/02 11:21:00;;;;;;;10.48;3.28;;;;;;;25.50;29.31;102051.34;6241094;23;20349;-93
2023/06/02 11:23:26;;;;;;;10.93;3.20;;;;;;;25.13;30.43;102066.13;6212063;23;20104;-91
2023/06/02 11:26:01;;;;;;;10.18;2.83;;;;;;;25.30;31.59;102066.56;6212559;23;20048;-91
2023/06/02 11:28:27;;;;;;;10.50;3.03;;;;;;;25.52;31.11;102068.34;6211939;23;20383;-91